TKJ4040 LTAC-LTBJ
Flight info
| Callsign | TKJ4040 |
|---|---|
| Flight time | 1h 1m |
| Altitude | 32000 |
| Route | HALIL UT54 KULAR |
| Aircraft | A321/M-SDE3FGHIRWY/LB1 |
Departure
| Time | 2026-05-05 02:00 |
|---|---|
| Airport | Esenboğa International Airport (LTAC) |
Arrival
| Time | 2026-05-05 03:02 |
|---|---|
| Airport | Adnan Menderes International Airport (LTBJ) |
| Time | Latitude | Longitude | Altitude | Speed | Heading |
|---|---|---|---|---|---|
| 2026-05-05 01:47 | 40.11494 | 32.98950 | 3118 ft | 0 kts | 131° |
| 2026-05-05 01:51 | 40.11498 | 32.98945 | 3118 ft | 2 kts | 130° |
| 2026-05-05 01:51 | 40.11510 | 32.98924 | 3118 ft | 3 kts | 120° |
| 2026-05-05 01:52 | 40.11518 | 32.98901 | 3118 ft | 3 kts | 102° |
| 2026-05-05 01:52 | 40.11519 | 32.98877 | 3118 ft | 3 kts | 72° |
| 2026-05-05 01:52 | 40.11512 | 32.98860 | 3118 ft | 1 kts | 40° |
| 2026-05-05 01:52 | 40.11510 | 32.98859 | 3118 ft | 0 kts | 39° |
| 2026-05-05 01:57 | 40.11512 | 32.98860 | 3118 ft | 2 kts | 39° |
| 2026-05-05 01:57 | 40.11548 | 32.98899 | 3118 ft | 11 kts | 39° |
| 2026-05-05 01:57 | 40.11610 | 32.98952 | 3118 ft | 12 kts | 355° |
| 2026-05-05 01:57 | 40.11664 | 32.98878 | 3118 ft | 14 kts | 306° |
| 2026-05-05 01:58 | 40.11735 | 32.98750 | 3118 ft | 16 kts | 306° |
| 2026-05-05 01:58 | 40.11805 | 32.98625 | 3118 ft | 16 kts | 306° |
| 2026-05-05 01:58 | 40.11866 | 32.98517 | 3118 ft | 9 kts | 306° |
| 2026-05-05 01:58 | 40.11932 | 32.98512 | 3119 ft | 7 kts | 34° |
| 2026-05-05 01:59 | 40.11952 | 32.98531 | 3119 ft | 0 kts | 37° |
| 2026-05-05 01:59 | 40.12064 | 32.98641 | 3120 ft | 54 kts | 36° |
| 2026-05-05 02:00 | 40.12555 | 32.99108 | 3125 ft | 118 kts | 36° |
| 2026-05-05 02:00 | 40.13368 | 32.99882 | 3144 ft | 167 kts | 36° |
| 2026-05-05 02:00 | 40.14303 | 33.00767 | 3649 ft | 166 kts | 36° |
| 2026-05-05 02:00 | 40.15210 | 33.01742 | 4187 ft | 170 kts | 40° |
| 2026-05-05 02:01 | 40.16122 | 33.02738 | 4749 ft | 174 kts | 39° |
| 2026-05-05 02:01 | 40.17090 | 33.03771 | 5110 ft | 185 kts | 39° |
| 2026-05-05 02:01 | 40.18122 | 33.04867 | 5465 ft | 197 kts | 38° |
| 2026-05-05 02:01 | 40.19222 | 33.06017 | 5814 ft | 209 kts | 36° |
| 2026-05-05 02:02 | 40.20527 | 33.06940 | 6124 ft | 221 kts | 14° |
| 2026-05-05 02:02 | 40.22100 | 33.07107 | 6409 ft | 237 kts | 349° |
| 2026-05-05 02:02 | 40.23664 | 33.06278 | 6743 ft | 252 kts | 322° |
| 2026-05-05 02:02 | 40.24903 | 33.04572 | 7140 ft | 266 kts | 308° |
| 2026-05-05 02:03 | 40.26012 | 33.02632 | 7700 ft | 273 kts | 307° |
| 2026-05-05 02:03 | 40.27163 | 33.00640 | 8352 ft | 276 kts | 308° |
| 2026-05-05 02:03 | 40.28346 | 32.98640 | 8991 ft | 279 kts | 309° |
| 2026-05-05 02:03 | 40.29549 | 32.96626 | 9605 ft | 282 kts | 309° |
| 2026-05-05 02:04 | 40.30772 | 32.94591 | 10205 ft | 288 kts | 309° |
| 2026-05-05 02:04 | 40.32044 | 32.92483 | 10526 ft | 303 kts | 309° |
| 2026-05-05 02:04 | 40.33390 | 32.90259 | 10774 ft | 320 kts | 309° |
| 2026-05-05 02:04 | 40.34675 | 32.87776 | 10990 ft | 339 kts | 297° |
| 2026-05-05 02:05 | 40.35482 | 32.84799 | 11203 ft | 356 kts | 285° |
| 2026-05-05 02:05 | 40.36069 | 32.81595 | 11569 ft | 366 kts | 283° |
| 2026-05-05 02:05 | 40.36649 | 32.78323 | 12092 ft | 371 kts | 284° |
| 2026-05-05 02:05 | 40.37223 | 32.75009 | 12636 ft | 374 kts | 281° |
| 2026-05-05 02:06 | 40.37350 | 32.71595 | 13154 ft | 378 kts | 264° |
| 2026-05-05 02:06 | 40.36661 | 32.68267 | 13674 ft | 381 kts | 245° |
| 2026-05-05 02:06 | 40.35206 | 32.65375 | 14120 ft | 383 kts | 226° |
| 2026-05-05 02:06 | 40.33115 | 32.63222 | 14589 ft | 385 kts | 208° |
| 2026-05-05 02:07 | 40.30663 | 32.61791 | 15072 ft | 387 kts | 195° |
| 2026-05-05 02:07 | 40.28040 | 32.60939 | 15579 ft | 389 kts | 191° |
| 2026-05-05 02:07 | 40.25380 | 32.60196 | 16050 ft | 392 kts | 190° |
| 2026-05-05 02:07 | 40.22700 | 32.59451 | 16513 ft | 396 kts | 190° |
| 2026-05-05 02:08 | 40.19999 | 32.58690 | 16962 ft | 399 kts | 190° |
| 2026-05-05 02:08 | 40.17267 | 32.57913 | 17423 ft | 402 kts | 190° |
| 2026-05-05 02:08 | 40.14553 | 32.57139 | 17864 ft | 405 kts | 191° |
| 2026-05-05 02:08 | 40.11786 | 32.56347 | 18301 ft | 408 kts | 190° |
| 2026-05-05 02:09 | 40.09001 | 32.55550 | 18733 ft | 411 kts | 190° |
| 2026-05-05 02:09 | 40.06199 | 32.54752 | 19154 ft | 414 kts | 190° |
| 2026-05-05 02:09 | 40.03376 | 32.53948 | 19581 ft | 416 kts | 190° |
| 2026-05-05 02:09 | 40.00534 | 32.53142 | 19984 ft | 419 kts | 190° |
| 2026-05-05 02:10 | 39.97672 | 32.52335 | 20373 ft | 422 kts | 190° |
| 2026-05-05 02:10 | 39.94797 | 32.51523 | 20798 ft | 423 kts | 190° |
| 2026-05-05 02:10 | 39.91917 | 32.50706 | 21187 ft | 425 kts | 190° |
| 2026-05-05 02:10 | 39.89012 | 32.49884 | 21566 ft | 427 kts | 190° |
| 2026-05-05 02:11 | 39.86103 | 32.49062 | 21935 ft | 429 kts | 190° |
| 2026-05-05 02:11 | 39.83173 | 32.48232 | 22292 ft | 431 kts | 190° |
| 2026-05-05 02:11 | 39.80236 | 32.47397 | 22646 ft | 434 kts | 190° |
| 2026-05-05 02:11 | 39.77280 | 32.46552 | 23005 ft | 435 kts | 190° |
| 2026-05-05 02:12 | 39.74305 | 32.45710 | 23342 ft | 437 kts | 190° |
| 2026-05-05 02:12 | 39.68366 | 32.44030 | 23984 ft | 441 kts | 190° |
| 2026-05-05 02:12 | 39.65360 | 32.43179 | 24278 ft | 443 kts | 190° |
| 2026-05-05 02:13 | 39.62340 | 32.42327 | 24558 ft | 446 kts | 190° |
| 2026-05-05 02:13 | 39.59337 | 32.41477 | 24836 ft | 448 kts | 190° |
| 2026-05-05 02:13 | 39.56251 | 32.40607 | 25126 ft | 451 kts | 190° |
| 2026-05-05 02:13 | 39.53173 | 32.39747 | 25402 ft | 453 kts | 190° |
| 2026-05-05 02:14 | 39.50084 | 32.38880 | 25667 ft | 456 kts | 191° |
| 2026-05-05 02:14 | 39.46979 | 32.37999 | 25939 ft | 458 kts | 192° |
| 2026-05-05 02:14 | 39.43931 | 32.36756 | 26188 ft | 462 kts | 202° |
| 2026-05-05 02:14 | 39.41120 | 32.34733 | 26413 ft | 465 kts | 215° |
| 2026-05-05 02:15 | 39.38710 | 32.31955 | 26653 ft | 466 kts | 228° |
| 2026-05-05 02:15 | 39.36821 | 32.28547 | 26881 ft | 467 kts | 241° |
| 2026-05-05 02:15 | 39.35465 | 32.24718 | 27127 ft | 468 kts | 249° |
| 2026-05-05 02:15 | 39.34270 | 32.20796 | 27357 ft | 470 kts | 250° |
| 2026-05-05 02:16 | 39.33077 | 32.16868 | 27645 ft | 470 kts | 250° |
| 2026-05-05 02:16 | 39.31864 | 32.12951 | 27980 ft | 469 kts | 249° |
| 2026-05-05 02:16 | 39.30641 | 32.09056 | 28314 ft | 468 kts | 249° |
| 2026-05-05 02:16 | 39.29408 | 32.05166 | 28629 ft | 468 kts | 249° |
| 2026-05-05 02:17 | 39.28189 | 32.01334 | 28930 ft | 468 kts | 249° |
| 2026-05-05 02:17 | 39.26954 | 31.97460 | 29272 ft | 466 kts | 249° |
| 2026-05-05 02:17 | 39.25724 | 31.93586 | 29511 ft | 467 kts | 251° |
| 2026-05-05 02:17 | 39.24496 | 31.89708 | 29724 ft | 467 kts | 251° |
| 2026-05-05 02:18 | 39.23260 | 31.85824 | 29999 ft | 468 kts | 251° |
| 2026-05-05 02:18 | 39.22017 | 31.81945 | 30299 ft | 467 kts | 251° |
| 2026-05-05 02:18 | 39.20775 | 31.78091 | 30584 ft | 466 kts | 251° |
| 2026-05-05 02:18 | 39.19542 | 31.74235 | 30857 ft | 465 kts | 251° |
| 2026-05-05 02:19 | 39.18310 | 31.70384 | 31126 ft | 464 kts | 251° |
| 2026-05-05 02:19 | 39.17081 | 31.66539 | 31392 ft | 463 kts | 251° |
| 2026-05-05 02:19 | 39.15848 | 31.62695 | 31683 ft | 463 kts | 251° |
| 2026-05-05 02:19 | 39.14618 | 31.58865 | 31945 ft | 463 kts | 251° |
| 2026-05-05 02:20 | 39.13800 | 31.56331 | 31985 ft | 461 kts | 251° |
| 2026-05-05 02:20 | 39.10923 | 31.47498 | 31977 ft | 459 kts | 251° |
| 2026-05-05 02:21 | 39.08870 | 31.41141 | 31972 ft | 459 kts | 251° |
| 2026-05-05 02:21 | 39.06412 | 31.33557 | 31974 ft | 459 kts | 251° |
| 2026-05-05 02:22 | 39.03961 | 31.26033 | 31971 ft | 459 kts | 251° |
| 2026-05-05 02:22 | 39.01490 | 31.18464 | 31971 ft | 458 kts | 251° |
| 2026-05-05 02:23 | 38.99026 | 31.10908 | 31976 ft | 458 kts | 251° |
| 2026-05-05 02:23 | 38.96543 | 31.03357 | 31978 ft | 458 kts | 251° |
| 2026-05-05 02:24 | 38.94055 | 30.95812 | 31981 ft | 458 kts | 251° |
| 2026-05-05 02:24 | 38.91557 | 30.88260 | 31980 ft | 459 kts | 252° |
| 2026-05-05 02:25 | 38.89053 | 30.80707 | 31982 ft | 460 kts | 252° |
| 2026-05-05 02:25 | 38.86564 | 30.73186 | 31980 ft | 460 kts | 252° |
| 2026-05-05 02:26 | 38.84045 | 30.65630 | 31979 ft | 460 kts | 252° |
| 2026-05-05 02:26 | 38.81539 | 30.58088 | 31977 ft | 459 kts | 252° |
| 2026-05-05 02:27 | 38.79795 | 30.50347 | 31979 ft | 448 kts | 266° |
| 2026-05-05 02:27 | 38.78796 | 30.42463 | 31988 ft | 449 kts | 266° |
| 2026-05-05 02:28 | 38.77778 | 30.34563 | 31992 ft | 448 kts | 266° |
| 2026-05-05 02:28 | 38.76757 | 30.26702 | 31999 ft | 447 kts | 266° |
| 2026-05-05 02:29 | 38.75735 | 30.18905 | 31996 ft | 439 kts | 266° |
| 2026-05-05 02:29 | 38.74700 | 30.11298 | 31997 ft | 436 kts | 266° |
| 2026-05-05 02:30 | 38.73644 | 30.03560 | 32007 ft | 443 kts | 266° |
| 2026-05-05 02:30 | 38.72618 | 29.95790 | 32000 ft | 441 kts | 268° |
| 2026-05-05 02:31 | 38.71670 | 29.88043 | 32002 ft | 440 kts | 268° |
| 2026-05-05 02:31 | 38.70704 | 29.80305 | 31999 ft | 441 kts | 268° |
| 2026-05-05 02:32 | 38.69734 | 29.72528 | 31999 ft | 441 kts | 268° |
| 2026-05-05 02:32 | 38.69265 | 29.68700 | 31990 ft | 429 kts | 268° |
| 2026-05-05 02:32 | 38.68805 | 29.64914 | 31985 ft | 432 kts | 261° |
| 2026-05-05 02:33 | 38.67985 | 29.57256 | 31998 ft | 435 kts | 265° |
| 2026-05-05 02:33 | 38.67065 | 29.49624 | 32550 ft | 435 kts | 265° |
| 2026-05-05 02:33 | 38.66515 | 29.45811 | 32267 ft | 435 kts | 269° |
| 2026-05-05 02:34 | 38.66086 | 29.41978 | 31957 ft | 436 kts | 270° |
| 2026-05-05 02:34 | 38.65695 | 29.38119 | 31687 ft | 440 kts | 270° |
| 2026-05-05 02:34 | 38.65314 | 29.34216 | 31424 ft | 441 kts | 270° |
| 2026-05-05 02:34 | 38.64940 | 29.30379 | 31169 ft | 439 kts | 270° |
| 2026-05-05 02:35 | 38.64564 | 29.26529 | 30710 ft | 434 kts | 270° |
| 2026-05-05 02:35 | 38.64188 | 29.22703 | 30164 ft | 432 kts | 270° |
| 2026-05-05 02:35 | 38.63816 | 29.18909 | 29544 ft | 429 kts | 270° |
| 2026-05-05 02:35 | 38.63445 | 29.15143 | 28930 ft | 425 kts | 270° |
| 2026-05-05 02:36 | 38.63076 | 29.11403 | 28328 ft | 422 kts | 270° |
| 2026-05-05 02:36 | 38.62709 | 29.07690 | 27737 ft | 419 kts | 270° |
| 2026-05-05 02:36 | 38.62343 | 29.04006 | 27152 ft | 417 kts | 270° |
| 2026-05-05 02:36 | 38.61977 | 29.00334 | 26589 ft | 414 kts | 270° |
| 2026-05-05 02:37 | 38.61613 | 28.96691 | 26037 ft | 412 kts | 270° |
| 2026-05-05 02:37 | 38.61250 | 28.93069 | 25491 ft | 410 kts | 270° |
| 2026-05-05 02:37 | 38.60887 | 28.89461 | 24956 ft | 408 kts | 270° |
| 2026-05-05 02:37 | 38.60525 | 28.85869 | 24435 ft | 406 kts | 270° |
| 2026-05-05 02:38 | 38.60168 | 28.82346 | 23913 ft | 404 kts | 270° |
| 2026-05-05 02:38 | 38.59808 | 28.78790 | 23344 ft | 402 kts | 270° |
| 2026-05-05 02:38 | 38.59445 | 28.75259 | 22782 ft | 399 kts | 270° |
| 2026-05-05 02:38 | 38.59076 | 28.71754 | 22253 ft | 396 kts | 269° |
| 2026-05-05 02:39 | 38.58714 | 28.68284 | 21736 ft | 392 kts | 269° |
| 2026-05-05 02:39 | 38.58320 | 28.64847 | 21228 ft | 391 kts | 266° |
| 2026-05-05 02:39 | 38.57545 | 28.61506 | 20707 ft | 397 kts | 253° |
| 2026-05-05 02:39 | 38.56391 | 28.58300 | 20215 ft | 395 kts | 250° |
| 2026-05-05 02:40 | 38.55202 | 28.55153 | 19733 ft | 392 kts | 250° |
| 2026-05-05 02:40 | 38.54024 | 28.52036 | 19257 ft | 388 kts | 250° |
| 2026-05-05 02:40 | 38.52859 | 28.48942 | 18804 ft | 385 kts | 250° |
| 2026-05-05 02:40 | 38.51702 | 28.45877 | 18330 ft | 381 kts | 250° |
| 2026-05-05 02:41 | 38.50561 | 28.42842 | 17800 ft | 378 kts | 250° |
| 2026-05-05 02:41 | 38.49426 | 28.39826 | 17275 ft | 374 kts | 250° |
| 2026-05-05 02:41 | 38.48308 | 28.36848 | 16757 ft | 371 kts | 250° |
| 2026-05-05 02:41 | 38.47191 | 28.33893 | 16243 ft | 368 kts | 250° |
| 2026-05-05 02:42 | 38.46087 | 28.30955 | 15726 ft | 366 kts | 250° |
| 2026-05-05 02:42 | 38.45057 | 28.28051 | 15228 ft | 360 kts | 256° |
| 2026-05-05 02:42 | 38.44464 | 28.25005 | 14744 ft | 351 kts | 265° |
| 2026-05-05 02:42 | 38.44063 | 28.21950 | 14277 ft | 348 kts | 267° |
| 2026-05-05 02:43 | 38.43685 | 28.18927 | 13952 ft | 341 kts | 267° |
| 2026-05-05 02:43 | 38.43306 | 28.15982 | 13754 ft | 330 kts | 266° |
| 2026-05-05 02:43 | 38.42931 | 28.13139 | 13595 ft | 319 kts | 267° |
| 2026-05-05 02:43 | 38.42570 | 28.10392 | 13394 ft | 310 kts | 267° |
| 2026-05-05 02:44 | 38.42217 | 28.07701 | 13032 ft | 306 kts | 267° |
| 2026-05-05 02:44 | 38.41864 | 28.05032 | 12670 ft | 304 kts | 267° |
| 2026-05-05 02:44 | 38.41513 | 28.02372 | 12288 ft | 303 kts | 267° |
| 2026-05-05 02:44 | 38.41158 | 27.99730 | 11918 ft | 301 kts | 267° |
| 2026-05-05 02:45 | 38.40808 | 27.97106 | 11533 ft | 299 kts | 267° |
| 2026-05-05 02:45 | 38.40456 | 27.94494 | 11142 ft | 298 kts | 266° |
| 2026-05-05 02:45 | 38.40110 | 27.91902 | 10748 ft | 296 kts | 266° |
| 2026-05-05 02:45 | 38.39763 | 27.89320 | 10351 ft | 295 kts | 266° |
| 2026-05-05 02:46 | 38.39406 | 27.86744 | 10039 ft | 294 kts | 266° |
| 2026-05-05 02:46 | 38.39047 | 27.84176 | 9967 ft | 294 kts | 266° |
| 2026-05-05 02:46 | 38.38690 | 27.81601 | 9962 ft | 295 kts | 266° |
| 2026-05-05 02:46 | 38.38348 | 27.79030 | 9973 ft | 294 kts | 266° |
| 2026-05-05 02:47 | 38.38012 | 27.76501 | 9979 ft | 295 kts | 266° |
| 2026-05-05 02:47 | 38.37655 | 27.73880 | 9988 ft | 295 kts | 266° |
| 2026-05-05 02:47 | 38.37301 | 27.71338 | 9980 ft | 295 kts | 266° |
| 2026-05-05 02:47 | 38.36944 | 27.68765 | 9977 ft | 295 kts | 266° |
| 2026-05-05 02:48 | 38.36589 | 27.66187 | 9992 ft | 294 kts | 266° |
| 2026-05-05 02:48 | 38.36234 | 27.63615 | 9988 ft | 295 kts | 266° |
| 2026-05-05 02:48 | 38.35881 | 27.61049 | 9993 ft | 295 kts | 266° |
| 2026-05-05 02:48 | 38.35526 | 27.58473 | 9986 ft | 295 kts | 266° |
| 2026-05-05 02:49 | 38.35171 | 27.55901 | 9926 ft | 295 kts | 266° |
| 2026-05-05 02:49 | 38.34819 | 27.53351 | 9721 ft | 288 kts | 266° |
| 2026-05-05 02:49 | 38.34472 | 27.50864 | 9505 ft | 282 kts | 266° |
| 2026-05-05 02:49 | 38.34133 | 27.48422 | 9271 ft | 276 kts | 266° |
| 2026-05-05 02:50 | 38.33803 | 27.46051 | 9039 ft | 268 kts | 266° |
| 2026-05-05 02:50 | 38.33482 | 27.43720 | 8952 ft | 267 kts | 266° |
| 2026-05-05 02:50 | 38.33164 | 27.41420 | 8961 ft | 267 kts | 266° |
| 2026-05-05 02:50 | 38.32820 | 27.39092 | 8976 ft | 268 kts | 264° |
| 2026-05-05 02:51 | 38.32403 | 27.36777 | 8989 ft | 269 kts | 263° |
| 2026-05-05 02:51 | 38.31971 | 27.34463 | 8995 ft | 269 kts | 262° |
| 2026-05-05 02:51 | 38.31540 | 27.32149 | 8992 ft | 269 kts | 263° |
| 2026-05-05 02:51 | 38.31037 | 27.29849 | 8985 ft | 273 kts | 252° |
| 2026-05-05 02:52 | 38.29909 | 27.27879 | 8963 ft | 283 kts | 222° |
| 2026-05-05 02:52 | 38.28135 | 27.26813 | 8622 ft | 286 kts | 189° |
| 2026-05-05 02:52 | 38.26174 | 27.26970 | 8218 ft | 284 kts | 163° |
| 2026-05-05 02:52 | 38.24288 | 27.27684 | 7861 ft | 282 kts | 161° |
| 2026-05-05 02:53 | 38.22413 | 27.28397 | 7518 ft | 281 kts | 162° |
| 2026-05-05 02:53 | 38.20533 | 27.29053 | 7179 ft | 280 kts | 163° |
| 2026-05-05 02:53 | 38.18649 | 27.29670 | 6849 ft | 278 kts | 164° |
| 2026-05-05 02:53 | 38.16809 | 27.30247 | 6553 ft | 275 kts | 165° |
| 2026-05-05 02:54 | 38.14935 | 27.30820 | 6262 ft | 270 kts | 165° |
| 2026-05-05 02:54 | 38.13123 | 27.31366 | 5984 ft | 266 kts | 165° |
| 2026-05-05 02:54 | 38.11337 | 27.31901 | 5720 ft | 261 kts | 166° |
| 2026-05-05 02:54 | 38.09553 | 27.32181 | 5437 ft | 257 kts | 187° |
| 2026-05-05 02:55 | 38.07952 | 27.31385 | 5194 ft | 243 kts | 224° |
| 2026-05-05 02:55 | 38.07010 | 27.29745 | 4964 ft | 222 kts | 257° |
| 2026-05-05 02:55 | 38.06658 | 27.27911 | 4761 ft | 206 kts | 266° |
| 2026-05-05 02:55 | 38.06418 | 27.26197 | 4690 ft | 193 kts | 266° |
| 2026-05-05 02:56 | 38.06250 | 27.24521 | 4547 ft | 189 kts | 277° |
| 2026-05-05 02:56 | 38.06666 | 27.23062 | 4351 ft | 176 kts | 313° |
| 2026-05-05 02:56 | 38.07607 | 27.22149 | 4192 ft | 170 kts | 339° |
| 2026-05-05 02:56 | 38.08741 | 27.21761 | 4063 ft | 169 kts | 352° |
| 2026-05-05 02:57 | 38.09898 | 27.21491 | 3936 ft | 169 kts | 348° |
| 2026-05-05 02:57 | 38.11044 | 27.21163 | 3763 ft | 169 kts | 347° |
| 2026-05-05 02:57 | 38.12190 | 27.20822 | 3560 ft | 167 kts | 347° |
| 2026-05-05 02:57 | 38.13303 | 27.20489 | 3336 ft | 164 kts | 347° |
| 2026-05-05 02:58 | 38.14417 | 27.20155 | 3114 ft | 164 kts | 347° |
| 2026-05-05 02:58 | 38.15532 | 27.19820 | 2894 ft | 163 kts | 346° |
| 2026-05-05 02:58 | 38.16592 | 27.19501 | 2693 ft | 153 kts | 346° |
| 2026-05-05 02:58 | 38.17595 | 27.19200 | 2489 ft | 143 kts | 346° |
| 2026-05-05 02:59 | 38.18562 | 27.18909 | 2280 ft | 143 kts | 346° |
| 2026-05-05 02:59 | 38.19534 | 27.18616 | 2088 ft | 143 kts | 346° |
| 2026-05-05 02:59 | 38.20490 | 27.18329 | 1896 ft | 143 kts | 346° |
| 2026-05-05 02:59 | 38.21463 | 27.18036 | 1701 ft | 144 kts | 346° |
| 2026-05-05 03:00 | 38.22449 | 27.17739 | 1494 ft | 147 kts | 346° |
| 2026-05-05 03:00 | 38.23431 | 27.17443 | 1299 ft | 145 kts | 346° |
| 2026-05-05 03:00 | 38.24417 | 27.17146 | 1098 ft | 145 kts | 346° |
| 2026-05-05 03:00 | 38.25394 | 27.16852 | 910 ft | 144 kts | 346° |
| 2026-05-05 03:01 | 38.26369 | 27.16557 | 725 ft | 144 kts | 347° |
| 2026-05-05 03:01 | 38.27340 | 27.16264 | 563 ft | 143 kts | 347° |
| 2026-05-05 03:01 | 38.28307 | 27.15980 | 429 ft | 137 kts | 346° |
| 2026-05-05 03:01 | 38.29111 | 27.15735 | 417 ft | 94 kts | 347° |
| 2026-05-05 03:02 | 38.29562 | 27.15600 | 416 ft | 25 kts | 347° |
| 2026-05-05 03:02 | 38.29729 | 27.15534 | 424 ft | 26 kts | 330° |
| 2026-05-05 03:02 | 38.29863 | 27.15399 | 418 ft | 22 kts | 316° |
| 2026-05-05 03:02 | 38.29960 | 27.15282 | 415 ft | 14 kts | 317° |
| 2026-05-05 03:03 | 38.29980 | 27.15168 | 415 ft | 8 kts | 256° |
| 2026-05-05 03:03 | 38.29961 | 27.15068 | 414 ft | 16 kts | 256° |
| 2026-05-05 03:03 | 38.29941 | 27.14972 | 417 ft | 11 kts | 235° |
| 2026-05-05 03:03 | 38.29877 | 27.14969 | 414 ft | 8 kts | 167° |
| 2026-05-05 03:04 | 38.29795 | 27.14994 | 414 ft | 16 kts | 166° |
| 2026-05-05 03:04 | 38.29691 | 27.15025 | 414 ft | 13 kts | 167° |
| 2026-05-05 03:04 | 38.29590 | 27.15056 | 410 ft | 16 kts | 167° |
| 2026-05-05 03:04 | 38.29493 | 27.15085 | 414 ft | 15 kts | 167° |
| 2026-05-05 03:05 | 38.29412 | 27.15109 | 415 ft | 9 kts | 167° |
| 2026-05-05 03:05 | 38.29336 | 27.15132 | 413 ft | 12 kts | 166° |
| 2026-05-05 03:05 | 38.29281 | 27.15149 | 412 ft | 6 kts | 173° |
| 2026-05-05 03:05 | 38.29256 | 27.15109 | 413 ft | 6 kts | 256° |
| 2026-05-05 03:06 | 38.29250 | 27.15078 | 417 ft | 2 kts | 256° |
| 2026-05-05 03:06 | 38.29249 | 27.15073 | 417 ft | 0 kts | 256° |